createdAt,value
2022-09-07T00:01:53.827Z,26.27
2022-09-07T00:05:15.441Z,6.13
2022-09-07T00:08:43.654Z,6.22
2022-09-07T00:12:10.333Z,5.85
2022-09-07T00:15:38.589Z,6.13
2022-09-07T00:19:03.856Z,6.50
2022-09-07T00:22:27.825Z,6.07
2022-09-07T00:25:53.963Z,16.02
2022-09-07T00:29:15.879Z,7.07
2022-09-07T00:32:42.136Z,6.75
2022-09-07T00:36:06.479Z,6.47
2022-09-07T00:39:28.116Z,6.32
2022-09-07T00:42:56.112Z,5.95
2022-09-07T00:46:31.896Z,6.47
2022-09-07T00:49:59.413Z,6.10
2022-09-07T00:53:30.729Z,6.90
2022-09-07T00:56:54.055Z,6.38
2022-09-07T01:00:15.878Z,6.10
2022-09-07T01:03:43.730Z,6.28
2022-09-07T01:07:05.891Z,6.00
2022-09-07T01:10:33.491Z,6.30
2022-09-07T01:13:58.131Z,6.00
2022-09-07T01:17:19.652Z,5.88
2022-09-07T01:21:15.716Z,6.85
2022-09-07T01:25:14.496Z,6.78
2022-09-07T01:28:38.923Z,6.60
2022-09-07T01:32:13.605Z,6.75
2022-09-07T01:35:47.968Z,6.70
2022-09-07T01:39:09.512Z,6.40
2022-09-07T01:42:41.040Z,6.30
2022-09-07T01:46:07.464Z,7.03
2022-09-07T01:49:39.579Z,6.85
2022-09-07T01:53:09.160Z,6.95
2022-09-07T01:56:38.940Z,7.70
2022-09-07T02:00:16.484Z,7.65
2022-09-07T02:03:47.302Z,7.22
2022-09-07T02:07:23.315Z,7.45
2022-09-07T02:11:03.664Z,7.85
2022-09-07T02:14:31.380Z,8.45
2022-09-07T02:18:05.563Z,7.88
2022-09-07T02:21:50.753Z,8.27
2022-09-07T02:25:37.839Z,8.57
2022-09-07T02:29:01.806Z,8.32
2022-09-07T02:32:23.419Z,8.82
2022-09-07T02:35:45.942Z,7.97
2022-09-07T02:39:07.678Z,9.50
2022-09-07T02:42:35.933Z,8.68
2022-09-07T02:46:09.948Z,8.00
2022-09-07T02:49:55.559Z,8.63
2022-09-07T02:53:42.882Z,8.15
2022-09-07T02:57:15.896Z,8.73
2022-09-07T03:00:47.873Z,8.77
2022-09-07T03:04:27.970Z,8.48
2022-09-07T03:08:16.778Z,8.88
2022-09-07T03:11:41.129Z,9.20
2022-09-07T03:15:02.879Z,8.60
2022-09-07T03:18:26.396Z,9.13
2022-09-07T03:21:50.548Z,8.65
2022-09-07T03:25:12.472Z,8.15
2022-09-07T03:28:34.110Z,9.77
2022-09-07T03:31:58.423Z,12.43
2022-09-07T03:35:20.459Z,11.00
2022-09-07T03:38:42.188Z,10.07
2022-09-07T03:42:06.273Z,10.05
2022-09-07T03:45:28.025Z,9.60
2022-09-07T03:48:50.467Z,9.32
2022-09-07T03:52:12.214Z,9.07
2022-09-07T03:55:35.947Z,9.00
2022-09-07T03:58:59.940Z,8.93
2022-09-07T04:02:21.720Z,9.15
2022-09-07T04:05:43.665Z,8.95
2022-09-07T04:09:08.954Z,8.85
2022-09-07T04:12:30.739Z,8.73
2022-09-07T04:15:53.992Z,9.43
2022-09-07T04:19:15.895Z,8.63
2022-09-07T04:22:37.420Z,9.40
2022-09-07T04:25:59.420Z,9.05
2022-09-07T04:29:21.143Z,8.23
2022-09-07T04:32:46.582Z,9.13
2022-09-07T04:36:12.138Z,9.23
2022-09-07T04:39:33.794Z,8.30
2022-09-07T04:42:55.466Z,8.48
2022-09-07T04:46:23.532Z,8.55
2022-09-07T04:53:11.479Z,8.27
2022-09-07T04:56:35.463Z,7.35
2022-09-07T04:59:57.035Z,7.80
2022-09-07T05:03:18.608Z,7.93
2022-09-07T05:06:40.618Z,8.93
2022-09-07T05:10:02.176Z,8.73
2022-09-07T05:13:24.064Z,8.13
2022-09-07T05:16:45.758Z,7.80
2022-09-07T05:20:11.968Z,8.45
2022-09-07T05:23:36.167Z,7.95
2022-09-07T05:27:01.784Z,8.63
2022-09-07T05:37:50.844Z,8.68
2022-09-07T05:41:17.223Z,7.90
2022-09-07T05:44:46.040Z,7.63
2022-09-07T05:48:07.909Z,6.88
2022-09-07T05:51:29.532Z,7.40
2022-09-07T05:54:54.257Z,6.68
2022-09-07T05:58:17.017Z,6.43
2022-09-07T06:01:42.067Z,6.88
2022-09-07T06:05:03.694Z,6.20
2022-09-07T06:08:25.608Z,6.07
2022-09-07T06:11:51.996Z,6.25
2022-09-07T06:15:16.344Z,6.50
2022-09-07T06:18:45.148Z,7.45
2022-09-07T06:22:08.930Z,6.68
2022-09-07T06:25:30.546Z,5.88
2022-09-07T06:28:57.768Z,4.63
2022-09-07T06:36:04.198Z,4.63
2022-09-07T06:39:28.517Z,4.22
2022-09-07T06:42:52.799Z,4.10
2022-09-07T06:49:57.223Z,3.90
2022-09-07T06:53:38.571Z,4.13
2022-09-07T06:57:09.314Z,4.20
2022-09-07T07:00:31.571Z,4.32
2022-09-07T07:03:55.981Z,4.25
2022-09-07T07:07:17.578Z,3.67
2022-09-07T07:10:41.744Z,4.47
2022-09-07T07:14:03.744Z,4.43
2022-09-07T07:17:27.731Z,4.72
2022-09-07T07:20:49.776Z,4.22
2022-09-07T07:24:11.362Z,3.95
2022-09-07T07:27:32.952Z,3.78
2022-09-07T07:30:59.701Z,4.50
2022-09-07T07:34:21.358Z,4.60
2022-09-07T07:37:43.097Z,4.10
2022-09-07T07:48:34.471Z,4.43
2022-09-07T07:55:45.406Z,3.97
2022-09-07T07:59:12.613Z,3.97
2022-09-07T08:02:37.527Z,4.10
2022-09-07T08:06:11.247Z,3.88
2022-09-07T08:09:33.055Z,3.95
2022-09-07T08:12:55.056Z,3.80
2022-09-07T08:16:17.615Z,4.00
2022-09-07T08:19:41.942Z,4.43
2022-09-07T08:23:09.591Z,3.67
2022-09-07T08:29:52.899Z,3.80
2022-09-07T08:33:14.449Z,3.97
2022-09-07T08:36:40.487Z,4.18
2022-09-07T08:40:05.678Z,4.72
2022-09-07T08:44:01.678Z,5.30
2022-09-07T08:47:41.317Z,4.10
2022-09-07T08:51:24.122Z,3.60
2022-09-07T08:54:57.543Z,4.30
2022-09-07T08:58:48.871Z,3.97
2022-09-07T09:02:36.600Z,3.42
2022-09-07T09:06:07.523Z,3.80
2022-09-07T09:09:32.878Z,4.28
2022-09-07T09:13:03.741Z,4.13
2022-09-07T09:16:42.997Z,4.38
2022-09-07T09:20:23.626Z,3.90
2022-09-07T09:23:51.507Z,3.65
2022-09-07T09:27:18.319Z,4.20
2022-09-07T09:30:40.085Z,4.72
2022-09-07T09:34:14.521Z,4.63
2022-09-07T09:37:38.116Z,4.38
2022-09-07T09:41:02.609Z,3.97
2022-09-07T09:44:33.115Z,3.80
2022-09-07T09:47:55.388Z,4.13
2022-09-07T09:55:17.208Z,4.07
2022-09-07T10:09:50.747Z,4.38
2022-09-07T10:13:23.393Z,3.80
2022-09-07T10:16:45.971Z,4.25
2022-09-07T10:20:16.806Z,4.13
2022-09-07T10:23:40.595Z,4.38
2022-09-07T10:27:19.758Z,3.92
2022-09-07T10:31:03.393Z,4.45
2022-09-07T10:34:30.069Z,4.28
2022-09-07T10:38:16.521Z,3.90
2022-09-07T10:41:53.218Z,3.25
2022-09-07T10:45:35.085Z,4.27
2022-09-07T10:49:05.514Z,3.90
2022-09-07T10:52:45.062Z,4.20
2022-09-07T10:56:22.892Z,3.80
2022-09-07T11:03:40.980Z,3.60
2022-09-07T11:07:41.629Z,4.78
2022-09-07T11:11:05.940Z,4.93
2022-09-07T11:14:29.261Z,4.93
2022-09-07T11:18:07.406Z,4.60
2022-09-07T11:25:29.562Z,4.50
2022-09-07T11:33:01.790Z,5.28
2022-09-07T11:36:29.064Z,5.55
2022-09-07T11:40:05.088Z,5.80
2022-09-07T11:43:41.749Z,5.85
2022-09-07T11:47:22.656Z,5.80
2022-09-07T11:50:48.969Z,5.50
2022-09-07T11:54:34.194Z,6.00
2022-09-07T11:58:23.888Z,6.70
2022-09-07T12:01:48.417Z,6.82
2022-09-07T12:05:33.624Z,7.47
2022-09-07T12:09:25.456Z,6.65
2022-09-07T12:12:56.747Z,7.97
2022-09-07T12:16:51.267Z,16.92
2022-09-07T12:20:17.695Z,13.57
2022-09-07T12:23:48.607Z,9.30
2022-09-07T12:27:31.982Z,8.02
2022-09-07T12:31:12.798Z,11.90
2022-09-07T12:34:34.395Z,10.45
2022-09-07T12:37:57.686Z,8.85
2022-09-07T12:41:25.599Z,10.80
2022-09-07T12:44:47.516Z,9.20
2022-09-07T12:48:15.246Z,10.45
2022-09-07T12:56:15.537Z,9.07
2022-09-07T12:59:53.118Z,9.38
2022-09-07T13:07:35.900Z,10.25
2022-09-07T13:11:16.198Z,9.10
2022-09-07T13:14:44.068Z,8.88
2022-09-07T13:18:05.861Z,9.32
2022-09-07T13:21:43.538Z,9.50
2022-09-07T13:25:21.039Z,8.80
2022-09-07T13:28:52.086Z,9.35
2022-09-07T13:36:22.146Z,8.73
2022-09-07T13:39:52.544Z,8.85
2022-09-07T13:43:22.413Z,8.52
2022-09-07T13:47:11.609Z,8.40
2022-09-07T13:50:55.416Z,8.77
2022-09-07T13:54:49.540Z,8.70
2022-09-07T13:58:19.551Z,7.20
2022-09-07T14:01:47.178Z,6.32
2022-09-07T14:05:18.704Z,7.30
2022-09-07T14:08:40.932Z,7.25
2022-09-07T14:12:04.473Z,7.70
2022-09-07T14:15:37.196Z,7.60
2022-09-07T14:18:59.110Z,7.50
2022-09-07T14:22:23.586Z,7.50
2022-09-07T14:29:31.881Z,6.40
2022-09-07T14:33:05.181Z,6.50
2022-09-07T14:36:45.737Z,5.80
2022-09-07T14:40:15.643Z,6.30
2022-09-07T14:43:56.956Z,6.65
2022-09-07T14:47:30.439Z,5.30
2022-09-07T14:51:05.792Z,5.18
2022-09-07T14:54:34.949Z,5.28
2022-09-07T14:58:17.556Z,5.53
2022-09-07T15:01:39.234Z,5.10
2022-09-07T15:05:18.564Z,5.50
2022-09-07T15:08:46.658Z,5.57
2022-09-07T15:12:18.940Z,5.50
2022-09-07T15:15:46.738Z,5.78
2022-09-07T15:19:18.470Z,6.93
2022-09-07T15:22:40.009Z,11.25
2022-09-07T15:26:03.037Z,5.88
2022-09-07T15:29:25.015Z,6.03
2022-09-07T15:32:46.833Z,7.15
2022-09-07T15:36:12.051Z,6.32
2022-09-07T15:39:34.640Z,5.90
2022-09-07T15:43:00.331Z,5.85
2022-09-07T15:46:22.387Z,6.03
2022-09-07T15:49:51.486Z,7.93
2022-09-07T16:00:41.381Z,6.88
2022-09-07T16:04:05.437Z,6.47
2022-09-07T16:08:24.694Z,6.28
2022-09-07T16:11:18.437Z,6.68
2022-09-07T16:14:40.444Z,6.55
2022-09-07T16:18:02.597Z,6.68
2022-09-07T16:21:26.607Z,6.60
2022-09-07T16:24:48.668Z,7.00
2022-09-07T16:28:13.016Z,7.10
2022-09-07T16:31:36.205Z,7.13
2022-09-07T16:35:00.338Z,7.00
2022-09-07T16:42:03.766Z,7.55
2022-09-07T16:49:12.246Z,6.57
2022-09-07T16:52:34.607Z,8.23
2022-09-07T16:56:11.291Z,7.70
2022-09-07T16:59:32.962Z,8.07
2022-09-07T17:03:01.798Z,8.15
2022-09-07T17:06:28.234Z,7.72
2022-09-07T17:09:50.151Z,7.82
2022-09-07T17:13:12.008Z,8.13
2022-09-07T17:16:38.587Z,7.90
2022-09-07T17:20:02.807Z,8.07
2022-09-07T17:23:27.933Z,7.70
2022-09-07T17:26:49.547Z,8.30
2022-09-07T17:30:25.603Z,8.68
2022-09-07T17:33:49.823Z,9.55
2022-09-07T17:37:11.567Z,10.73
2022-09-07T17:40:33.401Z,11.90
2022-09-07T17:43:56.840Z,14.27
2022-09-07T17:47:21.161Z,12.55
2022-09-07T17:50:42.991Z,10.77
2022-09-07T17:54:09.979Z,10.57
2022-09-07T17:57:34.816Z,10.07
2022-09-07T18:01:02.905Z,12.10
2022-09-07T18:04:28.873Z,10.77
2022-09-07T18:07:50.622Z,10.50
2022-09-07T18:14:57.385Z,9.77
2022-09-07T18:18:20.219Z,9.60
2022-09-07T18:21:47.778Z,9.63
2022-09-07T18:25:10.436Z,9.95
2022-09-07T18:32:13.718Z,10.20
2022-09-07T18:35:35.357Z,10.10
2022-09-07T18:39:01.384Z,9.75
2022-09-07T18:42:26.075Z,10.70
2022-09-07T18:45:51.018Z,9.90
2022-09-07T18:49:12.752Z,10.43
2022-09-07T18:56:22.390Z,10.77
2022-09-07T18:59:44.089Z,10.50
2022-09-07T19:03:05.645Z,10.88
2022-09-07T19:06:27.242Z,10.15
2022-09-07T19:09:49.010Z,10.23
2022-09-07T19:13:10.728Z,10.07
2022-09-07T19:16:35.622Z,10.45
2022-09-07T19:20:00.691Z,10.30
2022-09-07T19:23:25.113Z,10.90
2022-09-07T19:26:48.464Z,10.80
2022-09-07T19:30:12.758Z,10.57
2022-09-07T19:33:35.243Z,10.85
2022-09-07T19:36:59.384Z,10.77
2022-09-07T19:40:26.922Z,10.80
2022-09-07T19:43:51.851Z,11.07
2022-09-07T19:47:13.404Z,10.80
2022-09-07T19:50:40.835Z,10.00
2022-09-07T19:54:06.423Z,10.50
2022-09-07T19:57:28.551Z,11.00
2022-09-07T20:00:52.553Z,11.18
2022-09-07T20:04:20.725Z,10.05
2022-09-07T20:07:48.400Z,10.27
2022-09-07T20:11:16.725Z,10.93
2022-09-07T20:14:38.317Z,11.38
2022-09-07T20:18:02.495Z,11.05
2022-09-07T20:21:24.741Z,10.38
2022-09-07T20:24:46.570Z,9.65
2022-09-07T20:28:08.178Z,10.55
2022-09-07T20:31:32.269Z,11.73
2022-09-07T20:34:56.783Z,10.05
2022-09-07T20:38:21.469Z,10.88
2022-09-07T20:41:43.185Z,10.77
2022-09-07T20:45:09.038Z,10.25
2022-09-07T20:48:31.188Z,10.10
2022-09-07T20:51:55.743Z,10.13
2022-09-07T20:55:24.580Z,10.18
2022-09-07T20:58:47.321Z,9.77
2022-09-07T21:02:09.944Z,9.38
2022-09-07T21:05:35.613Z,10.00
2022-09-07T21:08:59.869Z,11.18
2022-09-07T21:12:23.739Z,10.73
2022-09-07T21:15:45.511Z,10.93
2022-09-07T21:19:09.325Z,10.82
2022-09-07T21:22:31.715Z,12.02
2022-09-07T21:25:55.724Z,11.70
2022-09-07T21:29:23.371Z,12.10
2022-09-07T21:32:45.103Z,12.20
2022-09-07T21:36:09.426Z,12.10
2022-09-07T21:39:33.353Z,12.48
2022-09-07T21:42:55.063Z,11.82
2022-09-07T21:46:18.827Z,11.05
2022-09-07T21:49:44.493Z,11.30
2022-09-07T21:53:06.207Z,11.00
2022-09-07T21:56:31.964Z,11.15
2022-09-07T21:59:56.576Z,11.18
2022-09-07T22:03:18.247Z,11.15
2022-09-07T22:06:43.893Z,11.65
2022-09-07T22:10:08.807Z,11.98
2022-09-07T22:13:30.451Z,12.55
2022-09-07T22:16:52.193Z,12.02
2022-09-07T22:20:13.948Z,11.98
2022-09-07T22:23:39.789Z,11.90
2022-09-07T22:27:01.512Z,12.32
2022-09-07T22:30:23.307Z,12.35
2022-09-07T22:33:46.827Z,11.93
2022-09-07T22:37:11.395Z,12.07
2022-09-07T22:40:33.057Z,12.60
2022-09-07T22:43:56.131Z,11.48
2022-09-07T22:47:17.668Z,11.77
2022-09-07T22:50:39.171Z,11.90
2022-09-07T22:54:00.829Z,11.73
2022-09-07T22:57:23.397Z,12.40
2022-09-07T23:00:46.935Z,11.43
2022-09-07T23:04:11.228Z,11.60
2022-09-07T23:07:32.876Z,11.70
2022-09-07T23:11:01.476Z,11.32
2022-09-07T23:14:23.127Z,11.52
2022-09-07T23:17:44.826Z,11.70
2022-09-07T23:21:08.893Z,11.65
2022-09-07T23:24:31.396Z,11.85
2022-09-07T23:27:54.108Z,11.18
2022-09-07T23:31:18.436Z,11.85
2022-09-07T23:34:40.037Z,11.40
2022-09-07T23:38:01.545Z,12.38
2022-09-07T23:41:24.982Z,12.57
2022-09-07T23:44:48.460Z,21.67
2022-09-07T23:48:10.005Z,12.98
2022-09-07T23:51:33.869Z,12.25
2022-09-07T23:54:58.058Z,12.85
2022-09-07T23:58:22.807Z,12.85
